Time;durP1;ratioP1;P1;durP2;ratioP2;P2;SDS_P1;SDS_P2;PMS_P1;PMS_P2;Temp;Humidity;BMP_temperature;BMP_pressure;BME280_temperature;BME280_humidity;BME280_pressure;Samples;Min_cycle;Max_cycle;Signal;HPM_P1;HPM_P2
2020/12/05 00:00:44;;;;;;;59.95;22.75;;;2.80;99.90;;;;;;5025566;28;23317;-80
2020/12/05 00:03:10;;;;;;;60.40;25.23;;;2.90;99.90;;;;;;5030871;28;20040;-80
2020/12/05 00:05:35;;;;;;;50.95;23.15;;;2.80;99.90;;;;;;5032642;28;20173;-80
2020/12/05 00:08:01;;;;;;;55.42;22.95;;;2.80;99.90;;;;;;5031433;28;20052;-80
2020/12/05 00:10:27;;;;;;;67.78;23.75;;;2.90;99.90;;;;;;5028240;28;20048;-79
2020/12/05 00:12:53;;;;;;;54.67;22.15;;;2.90;99.90;;;;;;5032074;28;20465;-79
2020/12/05 00:15:18;;;;;;;58.63;24.55;;;2.90;99.90;;;;;;5030218;28;20042;-79
2020/12/05 00:17:44;;;;;;;57.38;24.67;;;2.90;99.90;;;;;;5022147;28;20135;-79
2020/12/05 00:20:10;;;;;;;52.58;21.88;;;2.90;99.90;;;;;;5024759;28;20516;-80
2020/12/05 00:22:35;;;;;;;56.92;23.60;;;2.90;99.90;;;;;;5027100;28;20619;-79
2020/12/05 00:25:01;;;;;;;56.90;22.27;;;2.90;99.90;;;;;;5024817;28;20091;-78
2020/12/05 00:27:26;;;;;;;54.55;23.60;;;2.90;99.90;;;;;;5024816;28;20061;-78
2020/12/05 00:29:52;;;;;;;49.42;21.77;;;2.90;99.90;;;;;;5023579;28;20037;-78
2020/12/05 00:32:17;;;;;;;58.55;23.35;;;3.00;99.90;;;;;;5029624;28;20793;-78
2020/12/05 00:34:43;;;;;;;59.45;22.90;;;2.90;99.90;;;;;;5026076;28;20070;-79
2020/12/05 00:37:09;;;;;;;63.08;22.85;;;2.90;99.90;;;;;;5027203;28;20377;-79
2020/12/05 00:39:34;;;;;;;54.58;23.55;;;2.90;99.90;;;;;;5031282;28;20747;-79
2020/12/05 00:42:00;;;;;;;54.75;22.80;;;2.90;99.90;;;;;;5029187;28;20052;-78
2020/12/05 00:44:25;;;;;;;54.80;22.75;;;2.80;99.90;;;;;;5028154;28;20033;-79
2020/12/05 00:46:51;;;;;;;53.10;22.92;;;2.90;99.90;;;;;;5022726;28;20044;-78
2020/12/05 00:49:17;;;;;;;62.72;24.42;;;2.90;99.90;;;;;;5024476;28;20098;-78
2020/12/05 00:51:46;;;;;;;55.38;21.98;;;2.90;99.90;;;;;;5025360;28;20045;-79
2020/12/05 00:54:12;;;;;;;60.63;24.48;;;2.80;99.90;;;;;;5033764;28;20046;-79
2020/12/05 00:56:37;;;;;;;60.30;25.38;;;2.80;99.90;;;;;;5045746;28;20087;-77
2020/12/05 00:59:03;;;;;;;62.00;24.08;;;2.80;99.90;;;;;;5035761;28;20042;-79
2020/12/05 01:01:28;;;;;;;58.28;23.63;;;2.90;99.90;;;;;;5033560;28;20056;-79
2020/12/05 01:03:54;;;;;;;62.42;24.30;;;2.90;99.90;;;;;;5029417;28;20379;-78
2020/12/05 01:06:20;;;;;;;58.08;24.67;;;2.90;99.90;;;;;;5024715;28;20173;-78
2020/12/05 01:08:46;;;;;;;63.75;25.50;;;2.90;99.90;;;;;;5027206;28;20608;-77
2020/12/05 01:11:13;;;;;;;58.58;23.55;;;2.90;99.90;;;;;;5027951;28;20043;-78
2020/12/05 01:13:39;;;;;;;58.50;25.10;;;2.90;99.90;;;;;;5024715;28;20068;-79
2020/12/05 01:16:05;;;;;;;55.42;23.48;;;2.90;99.90;;;;;;5023300;28;20120;-80
2020/12/05 01:18:30;;;;;;;57.67;24.30;;;2.90;99.90;;;;;;5026217;28;20048;-79
2020/12/05 01:20:56;;;;;;;50.22;22.17;;;3.00;99.90;;;;;;5026232;28;20040;-78
2020/12/05 01:23:22;;;;;;;61.58;23.38;;;3.00;99.90;;;;;;5029391;28;20037;-78
2020/12/05 01:25:47;;;;;;;56.53;24.70;;;3.00;99.90;;;;;;5019753;28;20039;-79
2020/12/05 01:28:13;;;;;;;59.28;23.30;;;3.10;99.90;;;;;;5052368;28;20777;-79
2020/12/05 01:30:38;;;;;;;65.55;25.15;;;3.10;99.90;;;;;;5036607;28;20084;-78
2020/12/05 01:33:04;;;;;;;59.78;24.58;;;3.10;99.90;;;;;;5025514;28;20076;-80
2020/12/05 01:35:29;;;;;;;58.03;23.52;;;3.20;99.90;;;;;;5021995;28;20037;-80
2020/12/05 01:37:55;;;;;;;65.13;24.50;;;3.20;99.90;;;;;;5023405;28;20041;-78
2020/12/05 01:40:22;;;;;;;54.92;23.85;;;3.20;99.90;;;;;;5027931;28;20114;-78
2020/12/05 01:42:51;;;;;;;55.33;23.60;;;3.30;99.90;;;;;;5025174;28;20053;-78
2020/12/05 01:45:17;;;;;;;59.13;23.50;;;3.30;99.90;;;;;;5025983;28;20533;-78
2020/12/05 01:47:42;;;;;;;61.53;23.65;;;3.30;99.90;;;;;;5024886;28;20049;-77
2020/12/05 01:50:08;;;;;;;60.05;23.85;;;3.30;99.90;;;;;;5025045;28;20048;-78
2020/12/05 01:52:37;;;;;;;58.15;23.42;;;3.30;99.90;;;;;;5027492;28;20060;-78
2020/12/05 01:55:06;;;;;;;56.03;23.88;;;3.30;99.90;;;;;;5026555;28;20615;-78
2020/12/05 01:57:31;;;;;;;60.45;24.23;;;3.30;99.90;;;;;;5020257;28;20217;-78
2020/12/05 01:59:57;;;;;;;57.22;23.40;;;3.30;99.90;;;;;;5025872;28;20733;-77
2020/12/05 02:02:22;;;;;;;66.38;26.55;;;3.30;99.90;;;;;;5026618;28;20574;-78
2020/12/05 02:04:56;;;;;;;57.80;23.80;;;3.30;99.90;;;;;;5028436;28;20048;-78
2020/12/05 02:07:51;;;;;;;59.22;24.63;;;3.30;99.90;;;;;;5026955;28;20901;-78
2020/12/05 02:10:22;;;;;;;;;;;3.30;99.90;;;;;;5025225;28;20042;-77
2020/12/05 02:12:53;;;;;;;55.92;24.52;;;3.20;99.90;;;;;;5034825;28;20819;-78
2020/12/05 02:15:28;;;;;;;65.07;25.60;;;3.20;99.90;;;;;;5028980;28;20045;-78
2020/12/05 02:18:03;;;;;;;61.70;24.55;;;3.20;99.90;;;;;;5028194;28;20044;-79
2020/12/05 02:20:32;;;;;;;42.20;18.05;;;3.20;99.90;;;;;;5037725;28;20032;-78
2020/12/05 02:23:06;;;;;;;40.33;18.23;;;3.20;99.90;;;;;;5035987;28;20041;-78
2020/12/05 02:25:32;;;;;;;41.85;17.27;;;3.20;99.90;;;;;;5030829;28;21370;-78
2020/12/05 02:28:02;;;;;;;30.10;13.18;;;3.20;99.90;;;;;;5043223;28;20037;-78
2020/12/05 02:30:32;;;;;;;26.52;13.73;;;3.20;99.90;;;;;;5046394;28;20040;-77
2020/12/05 02:32:58;;;;;;;30.80;13.57;;;3.20;99.90;;;;;;5039152;28;20056;-78
2020/12/05 02:35:24;;;;;;;23.75;11.77;;;3.30;99.90;;;;;;5031261;28;20046;-78
2020/12/05 02:37:55;;;;;;;25.10;11.85;;;3.20;99.90;;;;;;5028843;28;20152;-78
2020/12/05 02:40:20;;;;;;;29.52;12.35;;;3.20;99.90;;;;;;5031611;28;20036;-78
2020/12/05 02:42:46;;;;;;;28.73;12.68;;;3.30;99.90;;;;;;5028773;28;20037;-77
2020/12/05 02:45:12;;;;;;;27.98;12.75;;;3.20;99.90;;;;;;5031589;28;20512;-77
2020/12/05 02:47:37;;;;;;;30.48;12.77;;;3.20;99.90;;;;;;5027083;28;20110;-77
2020/12/05 02:50:04;;;;;;;25.08;12.77;;;3.20;99.90;;;;;;5032131;28;20041;-78
2020/12/05 02:52:29;;;;;;;25.05;13.02;;;3.20;99.90;;;;;;5031093;28;20052;-78
2020/12/05 02:54:55;;;;;;;27.23;14.27;;;3.10;99.90;;;;;;5029194;28;20037;-77
2020/12/05 02:57:20;;;;;;;22.85;12.60;;;3.10;99.90;;;;;;5027417;28;21482;-77
2020/12/05 02:59:46;;;;;;;25.98;13.27;;;3.10;99.90;;;;;;5029771;28;20432;-77
2020/12/05 03:02:11;;;;;;;26.90;13.57;;;3.10;99.90;;;;;;5024995;28;20373;-77
2020/12/05 03:04:37;;;;;;;31.48;15.25;;;3.10;99.90;;;;;;5032300;28;20041;-78
2020/12/05 03:07:05;;;;;;;24.70;12.35;;;3.00;99.90;;;;;;5035090;28;20025;-78
2020/12/05 03:09:34;;;;;;;26.15;13.48;;;3.00;99.90;;;;;;5034634;28;20052;-79
2020/12/05 03:11:59;;;;;;;28.55;15.02;;;3.00;99.90;;;;;;5052961;28;20036;-79
2020/12/05 03:14:25;;;;;;;32.85;16.42;;;2.90;99.90;;;;;;5049426;28;20034;-78
2020/12/05 03:16:50;;;;;;;31.55;16.00;;;2.90;99.90;;;;;;5040613;28;20551;-79
2020/12/05 03:19:16;;;;;;;29.30;16.08;;;2.90;99.90;;;;;;5034717;28;20037;-79
2020/12/05 03:21:41;;;;;;;30.42;15.77;;;2.90;99.90;;;;;;5038112;28;20032;-79
2020/12/05 03:24:07;;;;;;;31.17;15.90;;;2.90;99.90;;;;;;5034838;28;20391;-78
2020/12/05 03:26:33;;;;;;;35.53;16.52;;;2.80;99.90;;;;;;5030743;28;20478;-78
2020/12/05 03:28:59;;;;;;;28.75;15.15;;;2.90;99.90;;;;;;5030574;28;20049;-78
2020/12/05 03:31:40;;;;;;;26.83;13.50;;;2.80;99.90;;;;;;5031574;28;20021;-78
2020/12/05 03:34:06;;;;;;;28.15;15.23;;;2.80;99.90;;;;;;5034484;28;20041;-78
2020/12/05 03:36:32;;;;;;;30.05;13.73;;;2.70;99.90;;;;;;5026185;28;20052;-79
2020/12/05 03:38:58;;;;;;;25.95;14.50;;;2.80;99.90;;;;;;5029052;28;20073;-78
2020/12/05 03:41:23;;;;;;;30.00;14.70;;;2.70;99.90;;;;;;5032495;28;20124;-78
2020/12/05 03:43:50;;;;;;;23.55;13.43;;;2.70;99.90;;;;;;5028946;28;20514;-78
2020/12/05 03:46:16;;;;;;;30.38;13.68;;;2.70;99.90;;;;;;5045841;28;20029;-77
2020/12/05 03:48:42;;;;;;;29.98;15.68;;;2.70;99.90;;;;;;5030156;28;20041;-78
2020/12/05 03:51:08;;;;;;;26.67;14.23;;;2.70;99.90;;;;;;5031767;28;20048;-78
2020/12/05 03:53:33;;;;;;;25.83;13.68;;;2.80;99.90;;;;;;5034376;28;20402;-77
2020/12/05 03:55:59;;;;;;;27.05;14.38;;;2.80;99.90;;;;;;5032158;28;20064;-77
2020/12/05 03:58:24;;;;;;;27.83;14.05;;;2.80;99.90;;;;;;5041275;28;20108;-78
2020/12/05 04:00:50;;;;;;;27.02;14.80;;;2.80;99.90;;;;;;5045296;28;20543;-78
2020/12/05 04:03:15;;;;;;;27.13;13.82;;;2.80;99.90;;;;;;5051594;28;20039;-79
2020/12/05 04:05:41;;;;;;;24.88;13.82;;;2.80;99.90;;;;;;5032345;28;20068;-79
2020/12/05 04:08:07;;;;;;;25.98;14.05;;;2.80;99.90;;;;;;5033122;28;20108;-79
2020/12/05 04:10:33;;;;;;;24.42;13.63;;;2.80;99.90;;;;;;5030920;28;20104;-77
2020/12/05 04:12:58;;;;;;;25.55;14.00;;;2.90;99.90;;;;;;5036517;28;20440;-78
2020/12/05 04:15:24;;;;;;;24.95;14.02;;;2.90;99.90;;;;;;5028938;28;20128;-77
2020/12/05 04:17:49;;;;;;;28.75;12.32;;;2.90;99.90;;;;;;5030575;28;20075;-78
2020/12/05 04:20:15;;;;;;;27.40;14.52;;;2.90;99.90;;;;;;5037784;28;20351;-77
2020/12/05 04:22:40;;;;;;;28.67;13.48;;;3.00;99.90;;;;;;5031395;28;20099;-77
2020/12/05 04:25:06;;;;;;;26.05;13.63;;;3.00;99.90;;;;;;5032966;28;20452;-77
2020/12/05 04:27:31;;;;;;;25.10;13.05;;;3.00;99.90;;;;;;5025734;28;20641;-77
2020/12/05 04:29:57;;;;;;;24.10;12.85;;;3.00;99.90;;;;;;5030149;28;20037;-78
2020/12/05 04:32:22;;;;;;;22.95;12.88;;;3.10;99.90;;;;;;5032888;28;20029;-77
2020/12/05 04:34:48;;;;;;;22.08;12.55;;;3.00;99.90;;;;;;5028578;28;20413;-77
2020/12/05 04:37:14;;;;;;;27.88;13.88;;;3.00;99.90;;;;;;5038444;28;20045;-77
2020/12/05 04:39:40;;;;;;;26.27;12.43;;;3.10;99.90;;;;;;5050461;28;20037;-76
2020/12/05 04:42:05;;;;;;;25.33;13.75;;;3.10;99.90;;;;;;5041882;28;20092;-77
2020/12/05 04:44:32;;;;;;;25.02;13.20;;;3.00;99.90;;;;;;5029845;28;20045;-77
2020/12/05 04:46:58;;;;;;;24.38;11.77;;;3.00;99.90;;;;;;5028815;28;20120;-77
2020/12/05 04:49:28;;;;;;;20.02;12.07;;;3.00;99.90;;;;;;5029133;28;20072;-77
2020/12/05 04:52:13;;;;;;;22.00;11.18;;;3.00;99.90;;;;;;5033107;28;20582;-77
2020/12/05 04:54:41;;;;;;;19.98;10.93;;;2.90;99.90;;;;;;5028551;28;20116;-77
2020/12/05 04:57:09;;;;;;;21.33;11.05;;;2.90;99.90;;;;;;5029633;28;20054;-78
2020/12/05 04:59:35;;;;;;;19.02;10.55;;;2.90;99.90;;;;;;5028667;28;20048;-77
2020/12/05 05:02:09;;;;;;;22.15;11.52;;;2.90;99.90;;;;;;5035922;28;20038;-77
2020/12/05 05:04:34;;;;;;;;;;;2.90;99.90;;;;;;5031115;28;20049;-77
2020/12/05 05:07:04;;;;;;;21.35;10.57;;;2.90;99.90;;;;;;5031103;28;19917;-77
2020/12/05 05:09:30;;;;;;;21.25;11.38;;;2.90;99.90;;;;;;5028957;28;20116;-77
2020/12/05 05:11:56;;;;;;;20.80;10.35;;;2.90;99.90;;;;;;5030654;28;20124;-77
2020/12/05 05:14:34;;;;;;;20.77;11.60;;;2.90;99.90;;;;;;5035706;28;20257;-77
2020/12/05 05:17:04;;;;;;;28.08;12.13;;;2.90;99.90;;;;;;5027614;28;20044;-76
2020/12/05 05:19:33;;;;;;;22.55;11.77;;;2.90;99.90;;;;;;5028487;28;20171;-76
2020/12/05 05:21:59;;;;;;;20.35;10.38;;;2.90;99.90;;;;;;5026014;28;20055;-77
2020/12/05 05:24:24;;;;;;;21.80;10.65;;;2.90;99.90;;;;;;5031124;28;20416;-77
2020/12/05 05:27:07;;;;;;;19.13;10.90;;;2.90;99.90;;;;;;5028310;28;20425;-77
2020/12/05 05:29:43;;;;;;;19.70;9.75;;;2.90;99.90;;;;;;5024986;28;20553;-77
2020/12/05 05:32:13;;;;;;;20.83;11.00;;;2.90;99.90;;;;;;5057481;28;20040;-78
2020/12/05 05:34:39;;;;;;;24.35;11.77;;;3.00;99.90;;;;;;5047288;28;20022;-78
2020/12/05 05:37:12;;;;;;;19.75;10.13;;;3.00;99.90;;;;;;5035171;28;20122;-77
2020/12/05 05:39:49;;;;;;;16.52;9.40;;;3.00;99.90;;;;;;5031299;28;20037;-78
2020/12/05 05:42:39;;;;;;;16.73;9.68;;;3.00;99.90;;;;;;5034418;28;20079;-78
2020/12/05 05:45:24;;;;;;;17.13;8.98;;;3.00;99.90;;;;;;5034828;28;20049;-76
2020/12/05 05:48:02;;;;;;;28.65;9.82;;;3.00;99.90;;;;;;5034314;28;20468;-77
2020/12/05 05:50:33;;;;;;;19.58;9.90;;;3.00;99.90;;;;;;5035174;28;20041;-76
2020/12/05 05:53:01;;;;;;;16.35;9.90;;;3.00;99.90;;;;;;5027757;28;20038;-77
2020/12/05 05:55:47;;;;;;;16.08;8.95;;;3.10;99.90;;;;;;5026792;28;20688;-77
2020/12/05 05:58:15;;;;;;;16.35;9.07;;;3.00;99.90;;;;;;5031185;28;20067;-77
2020/12/05 06:00:43;;;;;;;17.67;9.35;;;3.00;99.90;;;;;;5024708;28;20036;-78
2020/12/05 06:03:25;;;;;;;21.95;9.60;;;3.10;99.90;;;;;;5034504;28;20536;-77
2020/12/05 06:05:55;;;;;;;15.85;9.30;;;3.10;99.90;;;;;;5034190;28;20705;-77
2020/12/05 06:08:30;;;;;;;16.15;8.55;;;3.10;99.90;;;;;;5033107;28;20512;-78
2020/12/05 06:11:09;;;;;;;16.73;9.40;;;3.10;99.90;;;;;;5029330;28;20083;-76
2020/12/05 06:13:35;;;;;;;19.95;9.40;;;3.00;99.90;;;;;;5034500;28;20053;-76
2020/12/05 06:16:02;;;;;;;15.70;8.75;;;3.00;99.90;;;;;;5029374;28;20057;-77
2020/12/05 06:18:28;;;;;;;18.05;9.65;;;3.00;99.90;;;;;;5026152;28;20053;-78
2020/12/05 06:20:55;;;;;;;17.42;9.07;;;2.90;99.90;;;;;;5028399;28;20039;-77
2020/12/05 06:24:02;;;;;;;16.73;8.93;;;2.90;99.90;;;;;;5029910;28;20043;-78
2020/12/05 06:26:30;;;;;;;14.70;8.13;;;3.00;99.90;;;;;;5023109;28;20037;-77
2020/12/05 06:28:57;;;;;;;14.57;8.23;;;3.00;99.90;;;;;;5028181;28;20531;-78
2020/12/05 06:31:45;;;;;;;16.30;9.25;;;3.00;99.90;;;;;;5039574;28;20035;-76
2020/12/05 06:34:34;;;;;;;15.07;8.20;;;3.00;99.90;;;;;;5030599;28;20065;-77
2020/12/05 06:37:00;;;;;;;14.85;7.22;;;3.00;99.90;;;;;;5017453;28;20098;-77
2020/12/05 06:39:26;;;;;;;15.52;8.15;;;3.00;99.90;;;;;;5024631;28;20029;-78
2020/12/05 06:41:53;;;;;;;16.20;8.02;;;2.90;99.90;;;;;;5021262;28;20049;-77
2020/12/05 06:44:23;;;;;;;14.00;8.27;;;2.90;99.90;;;;;;5019025;28;20576;-77
2020/12/05 06:47:02;;;;;;;17.88;9.18;;;2.90;99.90;;;;;;5018513;28;20059;-77
2020/12/05 06:49:37;;;;;;;17.02;8.45;;;2.90;99.90;;;;;;5022668;28;20044;-77
2020/12/05 06:52:25;;;;;;;15.27;8.13;;;2.90;99.90;;;;;;5018014;28;20034;-77
2020/12/05 06:55:11;;;;;;;14.13;8.27;;;2.80;99.90;;;;;;5025188;28;20034;-77
2020/12/05 06:57:38;;;;;;;17.00;7.95;;;2.80;99.90;;;;;;5027591;28;20050;-77
2020/12/05 07:00:12;;;;;;;14.95;7.35;;;2.80;99.90;;;;;;5025200;28;20555;-77
2020/12/05 07:02:39;;;;;;;22.98;8.52;;;2.80;99.90;;;;;;5032927;28;20037;-78
2020/12/05 07:05:16;;;;;;;13.80;7.68;;;2.70;99.90;;;;;;5044763;28;20042;-77
2020/12/05 07:07:43;;;;;;;14.27;6.97;;;2.70;99.90;;;;;;5041446;28;20036;-77
2020/12/05 07:10:09;;;;;;;14.23;7.50;;;2.70;99.90;;;;;;5032372;28;20048;-77
2020/12/05 07:12:43;;;;;;;15.88;7.55;;;2.70;99.90;;;;;;5024663;28;20137;-77
2020/12/05 07:15:26;;;;;;;14.05;7.20;;;2.70;99.90;;;;;;5020788;28;20039;-78
2020/12/05 07:17:56;;;;;;;11.93;6.38;;;2.70;99.90;;;;;;5022405;28;20048;-78
2020/12/05 07:20:23;;;;;;;13.30;6.15;;;2.60;99.90;;;;;;5027279;28;20506;-77
2020/12/05 07:22:50;;;;;;;11.93;6.22;;;2.70;99.90;;;;;;5022089;28;20046;-77
2020/12/05 07:25:16;;;;;;;18.95;6.75;;;2.70;99.90;;;;;;5026265;28;20163;-78
2020/12/05 07:27:42;;;;;;;11.10;5.75;;;2.70;99.90;;;;;;5026436;28;20506;-78
2020/12/05 07:30:09;;;;;;;10.90;6.15;;;2.70;99.90;;;;;;5025823;28;20146;-77
2020/12/05 07:32:36;;;;;;;13.57;6.03;;;2.70;99.90;;;;;;5023438;28;20040;-78
2020/12/05 07:35:15;;;;;;;11.00;6.07;;;2.70;99.90;;;;;;5018524;28;20651;-79
2020/12/05 07:37:41;;;;;;;9.20;4.93;;;2.70;99.90;;;;;;5017184;28;20585;-78
2020/12/05 07:40:07;;;;;;;11.35;5.57;;;2.80;99.90;;;;;;5029244;28;20121;-78
2020/12/05 07:42:43;;;;;;;12.95;4.95;;;2.80;99.90;;;;;;5031725;28;20120;-78
2020/12/05 07:45:09;;;;;;;6.93;4.18;;;2.90;99.90;;;;;;5029047;28;20094;-78
2020/12/05 07:47:35;;;;;;;9.27;4.80;;;2.90;99.90;;;;;;5026067;28;20593;-77
2020/12/05 07:50:02;;;;;;;10.18;4.65;;;3.00;99.90;;;;;;5034622;28;20041;-76
2020/12/05 07:52:28;;;;;;;10.10;5.15;;;3.00;99.90;;;;;;5047365;28;20092;-77
2020/12/05 07:54:59;;;;;;;19.42;5.25;;;3.10;99.90;;;;;;5039967;28;20045;-78
2020/12/05 07:57:26;;;;;;;11.25;4.80;;;3.10;99.90;;;;;;5033689;28;20064;-78
2020/12/05 08:00:09;;;;;;;7.25;3.90;;;3.10;99.90;;;;;;5032670;28;20040;-78
2020/12/05 08:02:34;;;;;;;11.90;4.60;;;3.10;99.90;;;;;;5035768;28;20128;-77
2020/12/05 08:05:30;;;;;;;7.72;4.25;;;3.20;99.90;;;;;;5032594;28;20120;-77
2020/12/05 08:08:03;;;;;;;11.02;4.85;;;3.10;99.90;;;;;;5016643;28;20587;-78
2020/12/05 08:10:31;;;;;;;9.80;5.57;;;3.20;99.90;;;;;;5025421;28;20045;-76
2020/12/05 08:13:24;;;;;;;10.90;5.45;;;3.20;99.90;;;;;;5021938;28;20036;-78
2020/12/05 08:16:10;;;;;;;8.77;4.40;;;3.20;99.90;;;;;;5028609;28;20070;-77
2020/12/05 08:18:37;;;;;;;9.68;5.60;;;3.30;99.90;;;;;;5021102;28;20030;-77
2020/12/05 08:21:04;;;;;;;8.98;4.30;;;3.30;99.90;;;;;;5024363;28;20042;-77
2020/12/05 08:23:32;;;;;;;13.93;5.07;;;3.40;99.90;;;;;;5032576;28;20678;-77
2020/12/05 08:26:28;;;;;;;7.43;4.55;;;3.40;99.90;;;;;;5023549;28;20047;-78
2020/12/05 08:28:54;;;;;;;11.20;4.95;;;3.40;99.90;;;;;;5006331;28;20099;-77
2020/12/05 08:31:20;;;;;;;8.35;4.60;;;3.50;99.90;;;;;;5033020;28;20098;-79
2020/12/05 08:33:48;;;;;;;7.22;3.20;;;3.50;99.90;;;;;;5028681;28;20354;-78
2020/12/05 08:36:35;;;;;;;9.30;3.70;;;3.50;99.90;;;;;;5043921;28;20041;-79
2020/12/05 08:39:12;;;;;;;7.20;3.60;;;3.60;99.90;;;;;;5048786;28;20029;-80
2020/12/05 08:41:48;;;;;;;7.80;3.65;;;3.60;99.90;;;;;;5043697;28;20051;-79
2020/12/05 08:44:15;;;;;;;6.40;4.18;;;3.60;99.90;;;;;;5025199;28;21236;-80
2020/12/05 08:46:41;;;;;;;5.38;2.97;;;3.70;99.90;;;;;;5024631;28;20042;-77
2020/12/05 08:49:39;;;;;;;7.40;3.70;;;3.70;99.90;;;;;;5026732;28;20529;-78
2020/12/05 08:52:06;;;;;;;7.40;2.92;;;3.80;99.90;;;;;;5024920;28;20060;-79
2020/12/05 08:54:52;;;;;;;8.75;3.08;;;3.80;99.90;;;;;;5025322;28;20548;-78
2020/12/05 08:57:19;;;;;;;6.57;2.60;;;3.90;99.90;;;;;;5026417;28;20065;-78
2020/12/05 08:59:45;;;;;;;5.65;3.17;;;4.00;99.90;;;;;;5023357;28;21945;-77
2020/12/05 09:02:13;;;;;;;5.43;3.33;;;4.00;99.90;;;;;;5024517;28;20076;-78
2020/12/05 09:04:39;;;;;;;5.28;2.90;;;4.00;99.90;;;;;;5024376;28;20993;-79
2020/12/05 09:07:16;;;;;;;8.48;2.92;;;4.00;99.90;;;;;;5025349;28;20047;-79
2020/12/05 09:09:44;;;;;;;7.40;2.75;;;4.20;99.90;;;;;;5027853;28;20056;-79
2020/12/05 09:12:12;;;;;;;3.67;2.22;;;4.10;99.90;;;;;;5026309;28;20076;-80
2020/12/05 09:14:39;;;;;;;4.88;2.53;;;4.10;99.90;;;;;;5021785;28;20038;-79
2020/12/05 09:17:26;;;;;;;7.72;2.85;;;4.10;99.90;;;;;;5024084;28;20542;-78
2020/12/05 09:19:58;;;;;;;5.15;2.95;;;4.20;99.90;;;;;;5020807;28;20044;-79
2020/12/05 09:22:30;;;;;;;5.35;2.88;;;4.10;99.90;;;;;;5029522;28;20079;-80
2020/12/05 09:24:56;;;;;;;6.85;2.65;;;4.20;99.90;;;;;;5020737;28;20037;-79
2020/12/05 09:27:21;;;;;;;6.00;3.10;;;4.20;99.90;;;;;;5026575;28;20052;-80
2020/12/05 09:29:47;;;;;;;6.05;3.83;;;4.30;99.90;;;;;;5028825;28;20036;-79
2020/12/05 09:32:12;;;;;;;8.77;4.68;;;4.30;99.90;;;;;;5029320;28;20053;-79
2020/12/05 09:34:38;;;;;;;8.93;4.35;;;4.40;99.90;;;;;;5025585;28;20040;-79
2020/12/05 09:37:13;;;;;;;11.30;5.43;;;4.40;99.90;;;;;;5029451;28;20803;-78
2020/12/05 09:39:40;;;;;;;11.95;5.20;;;4.40;99.90;;;;;;5028479;28;20049;-77
2020/12/05 09:42:06;;;;;;;8.95;5.43;;;4.40;99.90;;;;;;5019326;28;20486;-77
2020/12/05 09:44:33;;;;;;;8.50;5.00;;;4.50;99.90;;;;;;5019761;28;20221;-78
2020/12/05 09:47:01;;;;;;;15.07;5.95;;;4.60;99.90;;;;;;5015733;28;20160;-80
2020/12/05 09:49:27;;;;;;;10.90;5.53;;;4.70;99.90;;;;;;5021489;28;20037;-79
2020/12/05 09:51:52;;;;;;;13.05;6.22;;;4.70;99.90;;;;;;5018317;28;20052;-79
2020/12/05 09:54:18;;;;;;;13.38;6.00;;;4.70;99.90;;;;;;5021832;28;20038;-78
2020/12/05 09:56:43;;;;;;;9.00;5.35;;;4.60;99.90;;;;;;5024937;28;20663;-79
2020/12/05 09:59:09;;;;;;;10.90;5.57;;;4.60;99.90;;;;;;5028726;28;20037;-79
2020/12/05 10:01:34;;;;;;;10.07;5.15;;;4.70;99.90;;;;;;5028688;28;20045;-79
2020/12/05 10:04:00;;;;;;;21.75;4.78;;;4.70;99.90;;;;;;5026309;28;20565;-76
2020/12/05 10:06:27;;;;;;;10.82;5.63;;;4.70;99.90;;;;;;5029197;28;20539;-78
2020/12/05 10:08:52;;;;;;;7.68;4.10;;;4.70;99.90;;;;;;5029475;28;20040;-78
2020/12/05 10:11:18;;;;;;;9.13;4.07;;;4.60;99.90;;;;;;5028826;28;20114;-78
2020/12/05 10:13:43;;;;;;;7.68;4.05;;;4.60;99.90;;;;;;5023050;28;20136;-80
2020/12/05 10:16:09;;;;;;;7.55;4.22;;;4.60;99.90;;;;;;5045210;28;20112;-79
2020/12/05 10:18:34;;;;;;;12.10;5.10;;;4.60;99.90;;;;;;5040581;28;20048;-79
2020/12/05 10:21:00;;;;;;;9.35;4.63;;;4.60;99.90;;;;;;5031415;28;20105;-79
2020/12/05 10:23:25;;;;;;;8.00;4.85;;;4.60;99.90;;;;;;5030794;28;20093;-79
2020/12/05 10:25:51;;;;;;;12.55;5.57;;;4.70;99.90;;;;;;5025139;28;20089;-79
2020/12/05 10:28:16;;;;;;;9.63;4.85;;;4.60;99.90;;;;;;5027641;28;20159;-79
2020/12/05 10:30:42;;;;;;;7.78;4.75;;;4.70;99.90;;;;;;5032888;28;20056;-79
2020/12/05 10:33:08;;;;;;;13.18;4.80;;;4.70;99.90;;;;;;5027192;28;20033;-79
2020/12/05 10:35:33;;;;;;;9.70;4.40;;;4.60;99.90;;;;;;5029691;28;20045;-80
2020/12/05 10:37:59;;;;;;;15.95;5.25;;;4.60;99.90;;;;;;5024190;28;20055;-78
2020/12/05 10:40:24;;;;;;;7.65;4.45;;;4.60;99.90;;;;;;5037167;28;20033;-77
2020/12/05 10:42:50;;;;;;;14.93;4.65;;;4.60;99.90;;;;;;5047070;28;20037;-79
2020/12/05 10:45:16;;;;;;;9.05;4.90;;;4.60;99.90;;;;;;5038049;28;23161;-79
2020/12/05 10:47:41;;;;;;;9.00;4.90;;;4.60;99.90;;;;;;5025476;28;20041;-78
2020/12/05 10:50:07;;;;;;;11.05;5.78;;;4.60;99.90;;;;;;5032400;28;20051;-79
2020/12/05 10:52:32;;;;;;;10.55;5.15;;;4.60;99.90;;;;;;5029288;28;20033;-77
2020/12/05 10:54:58;;;;;;;10.90;4.55;;;4.60;99.90;;;;;;5030455;28;20037;-78
2020/12/05 10:57:23;;;;;;;10.60;5.35;;;4.60;99.90;;;;;;5029683;28;20087;-77
2020/12/05 10:59:50;;;;;;;12.05;6.05;;;4.60;99.90;;;;;;5027120;28;20656;-77
2020/12/05 11:02:16;;;;;;;11.20;6.13;;;4.50;99.90;;;;;;5029210;28;20041;-78
2020/12/05 11:04:41;;;;;;;9.23;5.07;;;4.50;99.90;;;;;;5028897;28;20477;-79
2020/12/05 11:07:07;;;;;;;9.55;5.45;;;4.50;99.90;;;;;;5027940;28;21869;-78
2020/12/05 11:09:32;;;;;;;10.63;5.60;;;4.50;99.90;;;;;;5027112;28;21330;-80
2020/12/05 11:11:58;;;;;;;11.07;5.47;;;4.50;99.90;;;;;;5028688;28;20053;-80
2020/12/05 11:14:23;;;;;;;8.15;5.03;;;4.50;99.90;;;;;;5033204;28;20445;-78
2020/12/05 11:16:49;;;;;;;10.50;6.07;;;4.60;99.90;;;;;;5035955;28;20037;-78
2020/12/05 11:19:15;;;;;;;9.75;5.07;;;4.70;99.90;;;;;;5024795;28;20034;-77
2020/12/05 11:21:44;;;;;;;8.70;4.93;;;4.70;99.90;;;;;;5022136;28;20064;-77
2020/12/05 11:24:09;;;;;;;11.65;5.47;;;4.80;99.90;;;;;;5015358;28;21218;-78
2020/12/05 11:26:35;;;;;;;10.13;4.97;;;4.80;99.90;;;;;;5010631;28;20131;-77
2020/12/05 11:29:00;;;;;;;12.40;5.25;;;4.90;99.90;;;;;;5015827;28;20037;-78
2020/12/05 11:31:26;;;;;;;8.07;4.90;;;5.00;99.90;;;;;;5016890;28;20144;-78
2020/12/05 11:33:51;;;;;;;11.10;5.95;;;4.90;99.90;;;;;;5025050;28;20041;-78
2020/12/05 11:36:17;;;;;;;9.35;5.25;;;5.00;99.90;;;;;;5019580;28;20120;-79
2020/12/05 11:38:43;;;;;;;11.13;5.28;;;5.00;99.90;;;;;;5033740;28;20049;-78
2020/12/05 11:41:08;;;;;;;10.35;5.65;;;5.00;99.90;;;;;;5030915;28;20984;-79
2020/12/05 11:43:34;;;;;;;8.98;5.30;;;5.10;99.90;;;;;;5030885;28;20549;-76
2020/12/05 11:46:02;;;;;;;9.18;4.70;;;5.10;99.90;;;;;;5046202;28;20042;-80
2020/12/05 11:48:27;;;;;;;11.57;4.90;;;5.10;99.90;;;;;;5048254;28;20038;-79
2020/12/05 11:50:53;;;;;;;12.13;6.32;;;5.10;99.90;;;;;;5052144;28;20048;-79
2020/12/05 11:53:18;;;;;;;10.20;5.75;;;5.10;99.90;;;;;;5036473;28;20036;-78
2020/12/05 11:55:44;;;;;;;10.85;5.22;;;5.10;99.90;;;;;;5031639;28;20064;-78
2020/12/05 11:58:10;;;;;;;11.48;6.25;;;5.10;99.90;;;;;;5037556;28;20045;-78
2020/12/05 12:00:36;;;;;;;9.38;5.72;;;5.10;99.90;;;;;;5037186;28;20560;-78
2020/12/05 12:03:03;;;;;;;11.00;6.18;;;5.10;99.90;;;;;;5034441;28;20049;-79
2020/12/05 12:05:29;;;;;;;12.07;5.88;;;5.10;99.90;;;;;;5030962;28;20525;-78
2020/12/05 12:07:54;;;;;;;10.43;6.20;;;5.10;99.90;;;;;;5031265;28;20049;-78
2020/12/05 12:10:20;;;;;;;11.48;6.15;;;5.10;99.90;;;;;;5033045;28;20071;-79
2020/12/05 12:12:46;;;;;;;12.88;6.68;;;5.10;99.90;;;;;;5030542;28;20171;-79
2020/12/05 12:15:15;;;;;;;9.88;5.50;;;5.20;99.90;;;;;;5035524;28;20657;-78
2020/12/05 12:17:41;;;;;;;11.38;5.75;;;5.20;99.90;;;;;;5033003;28;20068;-78
2020/12/05 12:20:08;;;;;;;10.93;6.22;;;5.20;99.90;;;;;;5033419;28;20091;-79
2020/12/05 12:22:33;;;;;;;11.57;6.65;;;5.20;99.90;;;;;;5032356;28;20067;-79
2020/12/05 12:24:59;;;;;;;13.50;6.65;;;5.10;99.90;;;;;;5028646;28;21288;-78
2020/12/05 12:27:25;;;;;;;13.48;7.03;;;5.10;99.90;;;;;;5035636;28;20079;-78
2020/12/05 12:29:51;;;;;;;14.75;7.40;;;5.20;99.90;;;;;;5033042;28;20044;-77
2020/12/05 12:32:16;;;;;;;13.35;6.85;;;5.20;99.90;;;;;;5034784;28;20045;-77
2020/12/05 12:34:42;;;;;;;12.15;7.25;;;5.20;99.90;;;;;;5024565;28;20064;-78
2020/12/05 12:37:08;;;;;;;13.93;6.78;;;5.20;99.90;;;;;;5029976;28;20493;-77
2020/12/05 12:39:34;;;;;;;20.50;7.05;;;5.10;99.90;;;;;;5026941;28;20087;-79
2020/12/05 12:42:00;;;;;;;15.00;6.95;;;5.20;99.90;;;;;;5035928;28;21912;-77
2020/12/05 12:44:25;;;;;;;15.05;6.60;;;5.20;99.90;;;;;;5027525;28;20037;-79
2020/12/05 12:47:08;;;;;;;11.32;6.45;;;5.30;99.90;;;;;;5036853;28;20037;-77
2020/12/05 12:49:37;;;;;;;12.38;6.28;;;5.20;99.90;;;;;;5033665;28;20896;-77
2020/12/05 12:52:06;;;;;;;13.48;6.28;;;5.20;99.90;;;;;;5023572;28;20049;-79